sensor_id;sensor_type;location;lat;lon;timestamp;P1;durP1;ratioP1;P2;durP2;ratioP2
7989;SDS011;4040;42.848;23.034;2022-07-06T00:05:19;11.85;;;9.68;;
7989;SDS011;4040;42.848;23.034;2022-07-06T00:11:10;11.95;;;9.77;;
7989;SDS011;4040;42.848;23.034;2022-07-06T00:16:59;13.27;;;10.65;;
7989;SDS011;4040;42.848;23.034;2022-07-06T00:22:48;12.85;;;10.18;;
7989;SDS011;4040;42.848;23.034;2022-07-06T00:28:38;13.18;;;10.10;;
7989;SDS011;4040;42.848;23.034;2022-07-06T00:34:27;13.20;;;9.85;;
7989;SDS011;4040;42.848;23.034;2022-07-06T00:40:16;10.30;;;9.23;;
7989;SDS011;4040;42.848;23.034;2022-07-06T00:46:06;10.60;;;9.40;;
7989;SDS011;4040;42.848;23.034;2022-07-06T00:51:57;13.00;;;9.40;;
7989;SDS011;4040;42.848;23.034;2022-07-06T00:57:46;10.00;;;8.95;;
7989;SDS011;4040;42.848;23.034;2022-07-06T01:03:37;12.05;;;10.02;;
7989;SDS011;4040;42.848;23.034;2022-07-06T01:09:26;12.10;;;9.73;;
7989;SDS011;4040;42.848;23.034;2022-07-06T01:15:16;12.32;;;9.68;;
7989;SDS011;4040;42.848;23.034;2022-07-06T01:21:10;14.70;;;10.02;;
7989;SDS011;4040;42.848;23.034;2022-07-06T01:27:00;12.60;;;10.98;;
7989;SDS011;4040;42.848;23.034;2022-07-06T01:32:50;14.55;;;11.75;;
7989;SDS011;4040;42.848;23.034;2022-07-06T01:38:47;16.20;;;11.95;;
7989;SDS011;4040;42.848;23.034;2022-07-06T01:44:37;14.45;;;11.98;;
7989;SDS011;4040;42.848;23.034;2022-07-06T01:50:26;15.27;;;12.02;;
7989;SDS011;4040;42.848;23.034;2022-07-06T01:56:16;13.27;;;11.15;;
7989;SDS011;4040;42.848;23.034;2022-07-06T02:02:07;13.23;;;10.75;;
7989;SDS011;4040;42.848;23.034;2022-07-06T02:11:59;11.02;;;9.70;;
7989;SDS011;4040;42.848;23.034;2022-07-06T02:17:47;13.02;;;9.38;;
7989;SDS011;4040;42.848;23.034;2022-07-06T02:24:06;12.15;;;9.75;;
7989;SDS011;4040;42.848;23.034;2022-07-06T02:29:57;15.32;;;10.57;;
7989;SDS011;4040;42.848;23.034;2022-07-06T02:35:46;11.15;;;9.95;;
7989;SDS011;4040;42.848;23.034;2022-07-06T02:41:35;14.00;;;9.90;;
7989;SDS011;4040;42.848;23.034;2022-07-06T02:47:25;12.48;;;9.50;;
7989;SDS011;4040;42.848;23.034;2022-07-06T02:53:14;13.52;;;10.75;;
7989;SDS011;4040;42.848;23.034;2022-07-06T02:59:03;14.65;;;10.85;;
7989;SDS011;4040;42.848;23.034;2022-07-06T03:04:54;12.57;;;9.50;;
7989;SDS011;4040;42.848;23.034;2022-07-06T03:15:05;13.25;;;10.48;;
7989;SDS011;4040;42.848;23.034;2022-07-06T03:20:58;17.05;;;11.80;;
7989;SDS011;4040;42.848;23.034;2022-07-06T03:26:47;12.93;;;9.55;;
7989;SDS011;4040;42.848;23.034;2022-07-06T03:32:36;12.93;;;10.23;;
7989;SDS011;4040;42.848;23.034;2022-07-06T03:38:26;13.23;;;9.50;;
7989;SDS011;4040;42.848;23.034;2022-07-06T03:44:15;13.43;;;9.75;;
7989;SDS011;4040;42.848;23.034;2022-07-06T03:50:04;11.43;;;9.05;;
7989;SDS011;4040;42.848;23.034;2022-07-06T03:55:55;14.50;;;10.00;;
7989;SDS011;4040;42.848;23.034;2022-07-06T04:02:07;12.07;;;10.05;;
7989;SDS011;4040;42.848;23.034;2022-07-06T04:07:56;15.32;;;10.90;;
7989;SDS011;4040;42.848;23.034;2022-07-06T04:18:08;18.95;;;12.50;;
7989;SDS011;4040;42.848;23.034;2022-07-06T04:24:08;17.05;;;13.15;;
7989;SDS011;4040;42.848;23.034;2022-07-06T04:30:02;18.40;;;13.23;;
7989;SDS011;4040;42.848;23.034;2022-07-06T04:35:53;14.88;;;12.40;;
7989;SDS011;4040;42.848;23.034;2022-07-06T04:41:42;15.30;;;12.05;;
7989;SDS011;4040;42.848;23.034;2022-07-06T04:47:38;14.73;;;11.15;;
7989;SDS011;4040;42.848;23.034;2022-07-06T04:54:05;11.27;;;9.43;;
7989;SDS011;4040;42.848;23.034;2022-07-06T04:59:54;11.43;;;9.40;;
7989;SDS011;4040;42.848;23.034;2022-07-06T05:05:43;9.10;;;8.00;;
7989;SDS011;4040;42.848;23.034;2022-07-06T05:11:34;10.90;;;9.07;;
7989;SDS011;4040;42.848;23.034;2022-07-06T05:17:30;10.52;;;9.45;;
7989;SDS011;4040;42.848;23.034;2022-07-06T05:23:21;9.88;;;8.75;;
7989;SDS011;4040;42.848;23.034;2022-07-06T05:29:11;10.15;;;7.50;;
7989;SDS011;4040;42.848;23.034;2022-07-06T05:34:59;10.77;;;7.68;;
7989;SDS011;4040;42.848;23.034;2022-07-06T05:40:48;12.82;;;7.72;;
7989;SDS011;4040;42.848;23.034;2022-07-06T05:46:40;12.40;;;8.95;;
7989;SDS011;4040;42.848;23.034;2022-07-06T05:52:28;9.52;;;8.43;;
7989;SDS011;4040;42.848;23.034;2022-07-06T05:58:18;9.75;;;8.73;;
7989;SDS011;4040;42.848;23.034;2022-07-06T06:04:08;12.00;;;9.77;;
7989;SDS011;4040;42.848;23.034;2022-07-06T06:09:56;12.57;;;9.48;;
7989;SDS011;4040;42.848;23.034;2022-07-06T06:19:28;14.68;;;10.80;;
7989;SDS011;4040;42.848;23.034;2022-07-06T06:25:17;13.38;;;11.48;;
7989;SDS011;4040;42.848;23.034;2022-07-06T06:31:07;14.65;;;11.75;;
7989;SDS011;4040;42.848;23.034;2022-07-06T06:36:57;20.73;;;12.40;;
7989;SDS011;4040;42.848;23.034;2022-07-06T06:42:46;14.27;;;11.73;;
7989;SDS011;4040;42.848;23.034;2022-07-06T06:48:35;14.30;;;11.15;;
7989;SDS011;4040;42.848;23.034;2022-07-06T06:54:25;11.80;;;10.50;;
7989;SDS011;4040;42.848;23.034;2022-07-06T07:00:14;10.55;;;9.40;;
7989;SDS011;4040;42.848;23.034;2022-07-06T07:06:03;10.98;;;9.82;;
7989;SDS011;4040;42.848;23.034;2022-07-06T07:11:53;10.32;;;9.32;;
7989;SDS011;4040;42.848;23.034;2022-07-06T07:21:44;12.73;;;9.88;;
7989;SDS011;4040;42.848;23.034;2022-07-06T07:27:35;13.38;;;9.88;;
7989;SDS011;4040;42.848;23.034;2022-07-06T07:33:23;9.88;;;8.88;;
7989;SDS011;4040;42.848;23.034;2022-07-06T07:39:12;12.23;;;9.57;;
7989;SDS011;4040;42.848;23.034;2022-07-06T07:45:02;10.18;;;9.13;;
7989;SDS011;4040;42.848;23.034;2022-07-06T07:50:52;10.27;;;9.15;;
7989;SDS011;4040;42.848;23.034;2022-07-06T07:56:40;9.80;;;8.80;;
7989;SDS011;4040;42.848;23.034;2022-07-06T08:02:31;13.65;;;9.70;;
7989;SDS011;4040;42.848;23.034;2022-07-06T08:08:20;11.32;;;9.77;;
7989;SDS011;4040;42.848;23.034;2022-07-06T08:14:08;12.23;;;9.75;;
7989;SDS011;4040;42.848;23.034;2022-07-06T08:24:12;10.55;;;9.18;;
7989;SDS011;4040;42.848;23.034;2022-07-06T08:30:00;11.18;;;10.07;;
7989;SDS011;4040;42.848;23.034;2022-07-06T08:35:49;11.45;;;10.25;;
7989;SDS011;4040;42.848;23.034;2022-07-06T08:41:40;12.40;;;11.10;;
7989;SDS011;4040;42.848;23.034;2022-07-06T08:47:30;13.90;;;12.40;;
7989;SDS011;4040;42.848;23.034;2022-07-06T08:53:19;15.15;;;12.95;;
7989;SDS011;4040;42.848;23.034;2022-07-06T08:59:10;18.55;;;15.93;;
7989;SDS011;4040;42.848;23.034;2022-07-06T09:04:59;15.52;;;13.90;;
7989;SDS011;4040;42.848;23.034;2022-07-06T09:10:51;15.05;;;13.02;;
7989;SDS011;4040;42.848;23.034;2022-07-06T09:16:41;14.18;;;12.65;;
7989;SDS011;4040;42.848;23.034;2022-07-06T09:26:53;14.20;;;12.68;;
7989;SDS011;4040;42.848;23.034;2022-07-06T09:32:47;15.88;;;13.07;;
7989;SDS011;4040;42.848;23.034;2022-07-06T09:38:37;12.85;;;11.55;;
7989;SDS011;4040;42.848;23.034;2022-07-06T09:44:26;13.45;;;12.00;;
7989;SDS011;4040;42.848;23.034;2022-07-06T09:50:18;14.00;;;12.63;;
7989;SDS011;4040;42.848;23.034;2022-07-06T09:56:06;14.32;;;12.77;;
7989;SDS011;4040;42.848;23.034;2022-07-06T10:01:56;15.27;;;13.88;;
7989;SDS011;4040;42.848;23.034;2022-07-06T10:07:47;16.33;;;14.73;;
7989;SDS011;4040;42.848;23.034;2022-07-06T10:13:38;17.33;;;15.52;;
7989;SDS011;4040;42.848;23.034;2022-07-06T10:19:28;15.05;;;13.45;;
7989;SDS011;4040;42.848;23.034;2022-07-06T10:29:41;15.63;;;14.00;;
7989;SDS011;4040;42.848;23.034;2022-07-06T10:35:29;14.40;;;13.02;;
7989;SDS011;4040;42.848;23.034;2022-07-06T10:41:18;16.55;;;13.90;;
7989;SDS011;4040;42.848;23.034;2022-07-06T10:47:20;15.48;;;13.90;;
7989;SDS011;4040;42.848;23.034;2022-07-06T10:53:15;16.45;;;13.43;;
7989;SDS011;4040;42.848;23.034;2022-07-06T10:59:08;14.52;;;12.85;;
7989;SDS011;4040;42.848;23.034;2022-07-06T11:04:59;13.68;;;12.38;;
7989;SDS011;4040;42.848;23.034;2022-07-06T11:10:48;11.27;;;10.20;;
7989;SDS011;4040;42.848;23.034;2022-07-06T11:16:37;9.50;;;8.68;;
7989;SDS011;4040;42.848;23.034;2022-07-06T11:22:29;9.65;;;8.65;;
7989;SDS011;4040;42.848;23.034;2022-07-06T11:32:40;9.13;;;8.18;;
7989;SDS011;4040;42.848;23.034;2022-07-06T11:38:30;9.23;;;8.23;;
7989;SDS011;4040;42.848;23.034;2022-07-06T11:44:18;8.20;;;7.40;;
7989;SDS011;4040;42.848;23.034;2022-07-06T11:50:07;7.57;;;6.90;;
7989;SDS011;4040;42.848;23.034;2022-07-06T11:56:03;7.45;;;6.75;;
7989;SDS011;4040;42.848;23.034;2022-07-06T12:02:02;9.23;;;6.82;;
7989;SDS011;4040;42.848;23.034;2022-07-06T12:08:03;8.27;;;6.95;;
7989;SDS011;4040;42.848;23.034;2022-07-06T12:13:54;9.80;;;6.50;;
7989;SDS011;4040;42.848;23.034;2022-07-06T12:19:44;5.82;;;5.32;;
7989;SDS011;4040;42.848;23.034;2022-07-06T12:25:33;4.35;;;3.95;;
7989;SDS011;4040;42.848;23.034;2022-07-06T12:35:46;3.97;;;3.67;;
7989;SDS011;4040;42.848;23.034;2022-07-06T12:41:34;7.22;;;4.40;;
7989;SDS011;4040;42.848;23.034;2022-07-06T12:47:23;4.40;;;3.80;;
7989;SDS011;4040;42.848;23.034;2022-07-06T12:53:26;3.95;;;3.55;;
7989;SDS011;4040;42.848;23.034;2022-07-06T12:59:21;3.92;;;3.53;;
7989;SDS011;4040;42.848;23.034;2022-07-06T13:05:31;3.65;;;3.35;;
7989;SDS011;4040;42.848;23.034;2022-07-06T13:11:21;3.90;;;3.30;;
7989;SDS011;4040;42.848;23.034;2022-07-06T13:17:10;6.88;;;4.00;;
7989;SDS011;4040;42.848;23.034;2022-07-06T13:22:59;4.40;;;3.63;;
7989;SDS011;4040;42.848;23.034;2022-07-06T13:28:49;5.45;;;4.90;;
7989;SDS011;4040;42.848;23.034;2022-07-06T13:38:40;5.88;;;3.65;;
7989;SDS011;4040;42.848;23.034;2022-07-06T13:44:30;16.30;;;9.98;;
7989;SDS011;4040;42.848;23.034;2022-07-06T13:50:19;7.38;;;4.90;;
7989;SDS011;4040;42.848;23.034;2022-07-06T13:56:08;3.42;;;3.13;;
7989;SDS011;4040;42.848;23.034;2022-07-06T14:01:59;7.30;;;3.38;;
7989;SDS011;4040;42.848;23.034;2022-07-06T14:07:48;5.38;;;3.25;;
7989;SDS011;4040;42.848;23.034;2022-07-06T14:13:37;7.60;;;5.55;;
7989;SDS011;4040;42.848;23.034;2022-07-06T14:19:28;8.48;;;4.82;;
7989;SDS011;4040;42.848;23.034;2022-07-06T14:25:16;8.45;;;3.35;;
7989;SDS011;4040;42.848;23.034;2022-07-06T14:31:05;3.97;;;2.97;;
7989;SDS011;4040;42.848;23.034;2022-07-06T14:41:07;3.42;;;3.13;;
7989;SDS011;4040;42.848;23.034;2022-07-06T14:46:56;5.32;;;2.95;;
7989;SDS011;4040;42.848;23.034;2022-07-06T14:52:45;2.50;;;2.30;;
7989;SDS011;4040;42.848;23.034;2022-07-06T14:58:35;2.70;;;2.50;;
7989;SDS011;4040;42.848;23.034;2022-07-06T15:04:24;2.53;;;2.30;;
7989;SDS011;4040;42.848;23.034;2022-07-06T15:10:13;2.80;;;2.47;;
7989;SDS011;4040;42.848;23.034;2022-07-06T15:16:03;5.03;;;2.30;;
7989;SDS011;4040;42.848;23.034;2022-07-06T15:21:52;2.53;;;2.20;;
7989;SDS011;4040;42.848;23.034;2022-07-06T15:27:41;2.53;;;2.33;;
7989;SDS011;4040;42.848;23.034;2022-07-06T15:33:31;2.40;;;2.20;;
7989;SDS011;4040;42.848;23.034;2022-07-06T15:43:42;2.40;;;2.20;;
7989;SDS011;4040;42.848;23.034;2022-07-06T15:49:32;3.72;;;2.40;;
7989;SDS011;4040;42.848;23.034;2022-07-06T15:55:21;3.10;;;2.80;;
7989;SDS011;4040;42.848;23.034;2022-07-06T16:01:11;6.30;;;2.65;;
7989;SDS011;4040;42.848;23.034;2022-07-06T16:07:01;2.70;;;2.50;;
7989;SDS011;4040;42.848;23.034;2022-07-06T16:12:50;2.85;;;2.25;;
7989;SDS011;4040;42.848;23.034;2022-07-06T16:18:39;2.47;;;2.28;;
7989;SDS011;4040;42.848;23.034;2022-07-06T16:24:29;3.00;;;2.10;;
7989;SDS011;4040;42.848;23.034;2022-07-06T16:30:18;2.20;;;2.00;;
7989;SDS011;4040;42.848;23.034;2022-07-06T16:36:08;2.10;;;1.90;;
7989;SDS011;4040;42.848;23.034;2022-07-06T16:46:22;2.17;;;1.98;;
7989;SDS011;4040;42.848;23.034;2022-07-06T16:52:10;2.05;;;1.80;;
7989;SDS011;4040;42.848;23.034;2022-07-06T16:57:59;1.80;;;1.65;;
7989;SDS011;4040;42.848;23.034;2022-07-06T17:03:49;2.67;;;1.70;;
7989;SDS011;4040;42.848;23.034;2022-07-06T17:09:41;2.22;;;1.83;;
7989;SDS011;4040;42.848;23.034;2022-07-06T17:15:30;2.30;;;1.77;;
7989;SDS011;4040;42.848;23.034;2022-07-06T17:21:21;2.88;;;2.00;;
7989;SDS011;4040;42.848;23.034;2022-07-06T17:27:11;7.93;;;2.83;;
7989;SDS011;4040;42.848;23.034;2022-07-06T17:33:01;5.50;;;3.88;;
7989;SDS011;4040;42.848;23.034;2022-07-06T17:38:51;7.47;;;5.20;;
7989;SDS011;4040;42.848;23.034;2022-07-06T17:49:03;8.00;;;5.10;;
7989;SDS011;4040;42.848;23.034;2022-07-06T17:54:55;5.72;;;4.50;;
7989;SDS011;4040;42.848;23.034;2022-07-06T18:00:44;6.20;;;4.40;;
7989;SDS011;4040;42.848;23.034;2022-07-06T18:06:33;4.85;;;3.78;;
7989;SDS011;4040;42.848;23.034;2022-07-06T18:12:23;4.28;;;3.88;;
7989;SDS011;4040;42.848;23.034;2022-07-06T18:18:12;5.03;;;4.40;;
7989;SDS011;4040;42.848;23.034;2022-07-06T18:24:01;5.57;;;5.07;;
7989;SDS011;4040;42.848;23.034;2022-07-06T18:29:51;6.55;;;5.70;;
7989;SDS011;4040;42.848;23.034;2022-07-06T18:35:40;6.72;;;5.70;;
7989;SDS011;4040;42.848;23.034;2022-07-06T18:41:31;6.55;;;5.95;;
7989;SDS011;4040;42.848;23.034;2022-07-06T18:51:42;7.85;;;6.22;;
7989;SDS011;4040;42.848;23.034;2022-07-06T18:57:31;5.93;;;5.38;;
7989;SDS011;4040;42.848;23.034;2022-07-06T19:03:20;6.60;;;6.10;;
7989;SDS011;4040;42.848;23.034;2022-07-06T19:09:10;7.97;;;7.20;;
7989;SDS011;4040;42.848;23.034;2022-07-06T19:14:58;7.43;;;6.70;;
7989;SDS011;4040;42.848;23.034;2022-07-06T19:20:48;6.95;;;6.18;;
7989;SDS011;4040;42.848;23.034;2022-07-06T19:26:38;7.50;;;6.68;;
7989;SDS011;4040;42.848;23.034;2022-07-06T19:32:26;8.18;;;6.88;;
7989;SDS011;4040;42.848;23.034;2022-07-06T19:38:15;8.07;;;7.28;;
7989;SDS011;4040;42.848;23.034;2022-07-06T19:44:06;10.43;;;9.43;;
7989;SDS011;4040;42.848;23.034;2022-07-06T19:54:19;9.70;;;8.70;;
7989;SDS011;4040;42.848;23.034;2022-07-06T20:00:10;10.93;;;9.55;;
7989;SDS011;4040;42.848;23.034;2022-07-06T20:05:59;9.98;;;9.18;;
7989;SDS011;4040;42.848;23.034;2022-07-06T20:11:48;10.07;;;8.68;;
7989;SDS011;4040;42.848;23.034;2022-07-06T20:17:38;10.00;;;9.10;;
7989;SDS011;4040;42.848;23.034;2022-07-06T20:23:27;9.20;;;8.40;;
7989;SDS011;4040;42.848;23.034;2022-07-06T20:29:16;10.10;;;9.20;;
7989;SDS011;4040;42.848;23.034;2022-07-06T20:35:07;9.93;;;8.80;;
7989;SDS011;4040;42.848;23.034;2022-07-06T20:40:57;9.65;;;8.75;;
7989;SDS011;4040;42.848;23.034;2022-07-06T20:46:46;10.13;;;9.32;;
7989;SDS011;4040;42.848;23.034;2022-07-06T20:56:57;9.30;;;8.50;;
7989;SDS011;4040;42.848;23.034;2022-07-06T21:02:46;9.20;;;8.40;;
7989;SDS011;4040;42.848;23.034;2022-07-06T21:08:35;8.80;;;8.05;;
7989;SDS011;4040;42.848;23.034;2022-07-06T21:14:25;9.15;;;8.35;;
7989;SDS011;4040;42.848;23.034;2022-07-06T21:20:14;9.40;;;7.63;;
7989;SDS011;4040;42.848;23.034;2022-07-06T21:26:03;8.50;;;7.75;;
7989;SDS011;4040;42.848;23.034;2022-07-06T21:31:54;8.43;;;7.60;;
7989;SDS011;4040;42.848;23.034;2022-07-06T21:37:44;8.82;;;8.02;;
7989;SDS011;4040;42.848;23.034;2022-07-06T21:43:34;8.57;;;7.78;;
7989;SDS011;4040;42.848;23.034;2022-07-06T21:49:24;8.77;;;7.45;;
7989;SDS011;4040;42.848;23.034;2022-07-06T21:59:34;9.43;;;7.90;;
7989;SDS011;4040;42.848;23.034;2022-07-06T22:08:34;8.57;;;7.85;;
7989;SDS011;4040;42.848;23.034;2022-07-06T22:14:23;8.05;;;7.35;;
7989;SDS011;4040;42.848;23.034;2022-07-06T22:20:12;7.72;;;7.03;;
7989;SDS011;4040;42.848;23.034;2022-07-06T22:26:04;7.40;;;6.80;;
7989;SDS011;4040;42.848;23.034;2022-07-06T22:31:56;11.32;;;7.18;;
7989;SDS011;4040;42.848;23.034;2022-07-06T22:37:45;8.18;;;6.93;;
7989;SDS011;4040;42.848;23.034;2022-07-06T22:43:36;8.02;;;7.32;;
7989;SDS011;4040;42.848;23.034;2022-07-06T22:49:26;8.88;;;8.07;;
7989;SDS011;4040;42.848;23.034;2022-07-06T22:55:16;8.85;;;7.95;;
7989;SDS011;4040;42.848;23.034;2022-07-06T23:01:06;10.52;;;8.80;;
7989;SDS011;4040;42.848;23.034;2022-07-06T23:11:17;9.02;;;8.23;;
7989;SDS011;4040;42.848;23.034;2022-07-06T23:17:09;8.80;;;7.90;;
7989;SDS011;4040;42.848;23.034;2022-07-06T23:22:58;8.52;;;7.72;;
7989;SDS011;4040;42.848;23.034;2022-07-06T23:28:47;7.97;;;7.28;;
7989;SDS011;4040;42.848;23.034;2022-07-06T23:34:37;8.00;;;7.35;;
7989;SDS011;4040;42.848;23.034;2022-07-06T23:40:26;8.05;;;7.20;;
7989;SDS011;4040;42.848;23.034;2022-07-06T23:46:15;7.28;;;6.47;;
7989;SDS011;4040;42.848;23.034;2022-07-06T23:52:05;6.32;;;5.75;;
7989;SDS011;4040;42.848;23.034;2022-07-06T23:57:54;6.75;;;6.15;;
